createdAt,value
2017-11-11T00:00:21.386Z,0
2017-11-11T00:01:23.803Z,0
2017-11-11T00:02:26.595Z,0
2017-11-11T00:03:29.367Z,0
2017-11-11T00:04:31.807Z,0
2017-11-11T00:05:34.580Z,0
2017-11-11T00:06:36.984Z,0
2017-11-11T00:07:39.407Z,0
2017-11-11T00:08:41.832Z,0
2017-11-11T00:09:44.249Z,0
2017-11-11T00:10:46.670Z,0
2017-11-11T00:11:49.101Z,0
2017-11-11T00:12:51.520Z,0
2017-11-11T00:13:53.954Z,0
2017-11-11T00:14:56.716Z,0
2017-11-11T00:15:59.134Z,0
2017-11-11T00:17:01.932Z,0
2017-11-11T00:18:04.734Z,0
2017-11-11T00:19:07.369Z,0
2017-11-11T00:20:09.790Z,0
2017-11-11T00:21:12.207Z,0
2017-11-11T00:22:14.633Z,0
2017-11-11T00:23:17.051Z,0
2017-11-11T00:24:19.469Z,0
2017-11-11T00:25:21.903Z,0
2017-11-11T00:26:24.318Z,0
2017-11-11T00:27:26.754Z,0
2017-11-11T00:28:29.162Z,0
2017-11-11T00:29:31.601Z,0
2017-11-11T00:30:34.013Z,0
2017-11-11T00:31:36.449Z,0
2017-11-11T00:32:39.232Z,0
2017-11-11T00:33:41.650Z,0
2017-11-11T00:34:44.072Z,0
2017-11-11T00:35:46.496Z,0
2017-11-11T00:36:48.916Z,0
2017-11-11T00:37:51.350Z,0
2017-11-11T00:38:53.766Z,0
2017-11-11T00:39:56.185Z,0
2017-11-11T00:40:58.608Z,0
2017-11-11T00:42:01.044Z,0
2017-11-11T00:43:03.818Z,0
2017-11-11T00:44:06.259Z,0
2017-11-11T00:45:09.032Z,0
2017-11-11T00:46:11.463Z,0
2017-11-11T00:47:13.931Z,0
2017-11-11T00:48:16.362Z,0
2017-11-11T00:49:18.807Z,0
2017-11-11T00:50:21.232Z,0
2017-11-11T00:51:23.657Z,0
2017-11-11T00:52:26.072Z,0
2017-11-11T00:53:28.491Z,0
2017-11-11T00:54:30.912Z,0
2017-11-11T00:55:33.679Z,0
2017-11-11T00:56:36.117Z,0
2017-11-11T00:57:38.895Z,0
2017-11-11T00:58:41.326Z,0
2017-11-11T00:59:43.747Z,0
2017-11-11T01:00:46.170Z,0
2017-11-11T01:01:48.634Z,0
2017-11-11T01:02:51.054Z,0
2017-11-11T01:03:53.490Z,0
2017-11-11T01:04:55.917Z,0
2017-11-11T01:05:58.323Z,0
2017-11-11T01:07:01.123Z,0
2017-11-11T01:08:03.528Z,0
2017-11-11T01:09:05.960Z,0
2017-11-11T01:10:08.380Z,0
2017-11-11T01:11:10.808Z,0
2017-11-11T01:12:13.227Z,0
2017-11-11T01:13:15.667Z,0
2017-11-11T01:14:18.074Z,0
2017-11-11T01:15:20.500Z,0
2017-11-11T01:16:22.924Z,0
2017-11-11T01:17:25.353Z,0
2017-11-11T01:18:27.776Z,0
2017-11-11T01:19:30.209Z,0
2017-11-11T01:20:32.620Z,0
2017-11-11T01:21:35.048Z,0
2017-11-11T01:22:37.471Z,0
2017-11-11T01:23:39.897Z,0
2017-11-11T01:24:42.311Z,0
2017-11-11T01:25:44.739Z,0
2017-11-11T01:26:47.527Z,0
2017-11-11T01:27:50.314Z,0
2017-11-11T01:28:52.735Z,0
2017-11-11T01:29:55.141Z,0
2017-11-11T01:30:57.571Z,0
2017-11-11T01:32:00.006Z,0
2017-11-11T01:33:02.421Z,0
2017-11-11T01:34:04.851Z,0
2017-11-11T01:35:07.266Z,0
2017-11-11T01:36:09.726Z,0
2017-11-11T01:37:12.480Z,0
2017-11-11T01:38:15.259Z,0
2017-11-11T01:39:17.695Z,0
2017-11-11T01:40:20.503Z,0
2017-11-11T01:41:22.923Z,0
2017-11-11T01:42:25.340Z,0
2017-11-11T01:43:27.775Z,0
2017-11-11T01:44:30.187Z,0
2017-11-11T01:45:32.610Z,0
2017-11-11T01:46:35.039Z,0
2017-11-11T01:47:37.823Z,0
2017-11-11T01:48:40.240Z,0
2017-11-11T01:49:43.018Z,0
2017-11-11T01:50:45.432Z,0
2017-11-11T01:51:47.866Z,0
2017-11-11T01:52:50.291Z,0
2017-11-11T01:53:52.698Z,0
2017-11-11T01:54:55.136Z,0
2017-11-11T01:55:57.545Z,0
2017-11-11T01:56:59.971Z,0
2017-11-11T01:58:02.394Z,0
2017-11-11T01:59:04.813Z,0
2017-11-11T02:00:07.238Z,0
2017-11-11T02:01:09.650Z,0
2017-11-11T02:02:12.071Z,0
2017-11-11T02:03:14.496Z,0
2017-11-11T02:04:16.928Z,0
2017-11-11T02:05:19.346Z,0
2017-11-11T02:06:22.122Z,0
2017-11-11T02:07:24.542Z,0
2017-11-11T02:08:26.969Z,0
2017-11-11T02:09:29.396Z,0
2017-11-11T02:10:32.182Z,0
2017-11-11T02:11:34.600Z,0
2017-11-11T02:12:37.036Z,0
2017-11-11T02:13:39.458Z,0
2017-11-11T02:14:41.896Z,0
2017-11-11T02:15:44.688Z,0
2017-11-11T02:16:47.114Z,0
2017-11-11T02:17:49.538Z,0
2017-11-11T02:18:51.968Z,0
2017-11-11T02:19:54.381Z,0
2017-11-11T02:20:56.804Z,0
2017-11-11T02:21:59.227Z,0
2017-11-11T02:23:01.648Z,0
2017-11-11T02:24:04.425Z,0
2017-11-11T02:25:06.852Z,0
2017-11-11T02:26:09.263Z,0
2017-11-11T02:27:11.707Z,0
2017-11-11T02:28:14.135Z,0
2017-11-11T02:29:16.627Z,0
2017-11-11T02:30:19.153Z,0
2017-11-11T02:31:22.001Z,0
2017-11-11T02:32:24.805Z,0
2017-11-11T02:33:27.287Z,0
2017-11-11T02:34:30.112Z,0
2017-11-11T02:35:32.558Z,0
2017-11-11T02:36:34.993Z,0
2017-11-11T02:37:37.493Z,0
2017-11-11T02:38:39.980Z,0
2017-11-11T02:39:42.394Z,0
2017-11-11T02:40:45.240Z,0
2017-11-11T02:41:47.688Z,0
2017-11-11T02:42:50.169Z,0
2017-11-11T02:43:52.653Z,0
2017-11-11T02:44:55.139Z,0
2017-11-11T02:45:57.564Z,0
2017-11-11T02:47:00.026Z,0
2017-11-11T02:48:02.545Z,0
2017-11-11T02:49:05.768Z,0
2017-11-11T02:50:08.323Z,0
2017-11-11T02:51:11.130Z,0
2017-11-11T02:52:13.576Z,0
2017-11-11T02:53:16.758Z,0
2017-11-11T02:54:19.245Z,0
2017-11-11T02:55:22.052Z,0
2017-11-11T02:56:24.852Z,0
2017-11-11T02:57:27.283Z,0
2017-11-11T02:58:29.754Z,0
2017-11-11T02:59:32.194Z,0
2017-11-11T03:00:34.702Z,0
2017-11-11T03:01:37.522Z,0
2017-11-11T03:02:40.312Z,0
2017-11-11T03:03:43.110Z,0
2017-11-11T03:04:45.562Z,0
2017-11-11T03:05:47.996Z,0
2017-11-11T03:06:50.479Z,0
2017-11-11T03:07:52.922Z,0
2017-11-11T03:08:55.353Z,0
2017-11-11T03:09:57.917Z,0
2017-11-11T03:11:00.466Z,0
2017-11-11T03:12:02.909Z,0
2017-11-11T03:13:05.387Z,0
2017-11-11T03:14:07.806Z,0
2017-11-11T03:15:10.279Z,0
2017-11-11T03:16:12.717Z,0
2017-11-11T03:17:15.540Z,0
2017-11-11T03:18:18.048Z,0
2017-11-11T03:19:20.508Z,0
2017-11-11T03:20:22.941Z,0
2017-11-11T03:21:25.388Z,0
2017-11-11T03:22:27.889Z,0
2017-11-11T03:23:30.312Z,0
2017-11-11T03:24:32.751Z,0
2017-11-11T03:25:35.234Z,0
2017-11-11T03:26:37.663Z,0
2017-11-11T03:27:40.087Z,0
2017-11-11T03:28:42.559Z,0
2017-11-11T03:29:44.979Z,0
2017-11-11T03:30:47.459Z,0
2017-11-11T03:31:49.976Z,0
2017-11-11T03:32:52.470Z,0
2017-11-11T03:33:54.899Z,0
2017-11-11T03:34:57.356Z,0
2017-11-11T03:35:59.798Z,0
2017-11-11T03:37:02.238Z,0
2017-11-11T03:38:04.656Z,0
2017-11-11T03:39:07.449Z,0
2017-11-11T03:40:09.873Z,0
2017-11-11T03:41:12.301Z,0
2017-11-11T03:42:14.710Z,0
2017-11-11T03:43:17.145Z,0
2017-11-11T03:44:19.553Z,0
2017-11-11T03:45:21.984Z,0
2017-11-11T03:46:24.397Z,0
2017-11-11T03:47:26.823Z,0
2017-11-11T03:48:29.227Z,0
2017-11-11T03:49:31.662Z,0
2017-11-11T03:50:34.432Z,0
2017-11-11T03:51:36.883Z,0
2017-11-11T03:52:39.299Z,0
2017-11-11T03:53:41.733Z,0
2017-11-11T03:54:44.153Z,0
2017-11-11T03:55:46.581Z,0
2017-11-11T03:56:49.000Z,0
2017-11-11T03:57:51.420Z,0
2017-11-11T03:58:53.833Z,0
2017-11-11T03:59:56.267Z,0
2017-11-11T04:00:58.685Z,0
2017-11-11T04:02:01.100Z,0
2017-11-11T04:03:03.522Z,0
2017-11-11T04:04:06.294Z,0
2017-11-11T04:05:08.710Z,0
2017-11-11T04:06:11.137Z,0
2017-11-11T04:07:13.547Z,0
2017-11-11T04:08:15.984Z,0
2017-11-11T04:09:18.771Z,0
2017-11-11T04:10:21.566Z,0
2017-11-11T04:11:23.994Z,0
2017-11-11T04:12:26.764Z,0
2017-11-11T04:13:29.178Z,0
2017-11-11T04:14:31.979Z,0
2017-11-11T04:15:34.396Z,0
2017-11-11T04:16:36.811Z,0
2017-11-11T04:17:39.236Z,0
2017-11-11T04:18:42.009Z,0
2017-11-11T04:19:44.432Z,0
2017-11-11T04:20:46.861Z,0
2017-11-11T04:21:49.631Z,0
2017-11-11T04:22:52.059Z,0
2017-11-11T04:23:54.834Z,0
2017-11-11T04:24:57.249Z,0
2017-11-11T04:25:59.676Z,0
2017-11-11T04:27:02.102Z,0
2017-11-11T04:28:04.517Z,0
2017-11-11T04:29:06.949Z,0
2017-11-11T04:30:09.748Z,0
2017-11-11T04:31:12.176Z,0
2017-11-11T04:32:14.597Z,0
2017-11-11T04:33:17.354Z,0
2017-11-11T04:34:20.153Z,0
2017-11-11T04:35:22.578Z,0
2017-11-11T04:36:24.999Z,0
2017-11-11T04:37:27.418Z,0
2017-11-11T04:38:29.833Z,0
2017-11-11T04:39:32.252Z,0
2017-11-11T04:40:34.710Z,0
2017-11-11T04:41:37.124Z,0
2017-11-11T04:42:39.542Z,0
2017-11-11T04:43:41.969Z,0
2017-11-11T04:44:44.381Z,0
2017-11-11T04:45:46.807Z,0
2017-11-11T04:46:49.234Z,0
2017-11-11T04:47:51.646Z,0
2017-11-11T04:48:54.071Z,0
2017-11-11T04:49:56.525Z,0
2017-11-11T04:50:58.957Z,0
2017-11-11T04:52:01.374Z,0
2017-11-11T04:53:03.795Z,0
2017-11-11T04:54:06.209Z,0
2017-11-11T04:55:08.643Z,0
2017-11-11T04:56:11.057Z,0
2017-11-11T04:57:13.466Z,0
2017-11-11T04:58:15.891Z,0
2017-11-11T04:59:18.320Z,0
2017-11-11T05:00:20.742Z,0
2017-11-11T05:01:23.514Z,0
2017-11-11T05:02:25.937Z,0
2017-11-11T05:03:28.358Z,0
2017-11-11T05:04:31.148Z,0
2017-11-11T05:05:34.267Z,0
2017-11-11T05:06:36.688Z,0
2017-11-11T05:07:39.101Z,0
2017-11-11T05:08:41.526Z,0
2017-11-11T05:09:43.942Z,0
2017-11-11T05:10:46.369Z,0
2017-11-11T05:11:48.785Z,0
2017-11-11T05:12:51.209Z,0
2017-11-11T05:13:53.631Z,0
2017-11-11T05:14:56.063Z,0
2017-11-11T05:15:58.482Z,0
2017-11-11T05:17:00.901Z,0
2017-11-11T05:18:03.340Z,0
2017-11-11T05:19:05.749Z,0
2017-11-11T05:20:08.169Z,0
2017-11-11T05:21:10.596Z,0
2017-11-11T05:22:12.994Z,0
2017-11-11T05:23:15.420Z,0
2017-11-11T05:24:17.832Z,0
2017-11-11T05:25:20.261Z,0
2017-11-11T05:26:22.677Z,0
2017-11-11T05:27:25.111Z,0
2017-11-11T05:28:27.539Z,0
2017-11-11T05:29:29.951Z,0
2017-11-11T05:30:32.378Z,0
2017-11-11T05:31:35.537Z,0
2017-11-11T05:32:38.013Z,0
2017-11-11T05:33:40.443Z,0
2017-11-11T05:34:42.863Z,0
2017-11-11T05:35:45.289Z,0
2017-11-11T05:36:47.708Z,0
2017-11-11T05:37:50.134Z,0
2017-11-11T05:38:52.546Z,0
2017-11-11T05:39:54.969Z,0
2017-11-11T05:40:57.386Z,0
2017-11-11T05:41:59.808Z,0
2017-11-11T05:43:02.229Z,0
2017-11-11T05:44:04.650Z,0
2017-11-11T05:45:07.073Z,0
2017-11-11T05:46:09.502Z,0
2017-11-11T05:47:11.928Z,0
2017-11-11T05:48:14.351Z,0
2017-11-11T05:49:16.772Z,0
2017-11-11T05:50:19.197Z,0
2017-11-11T05:51:21.621Z,0
2017-11-11T05:52:24.036Z,0
2017-11-11T05:53:26.444Z,0
2017-11-11T05:54:28.880Z,0
2017-11-11T05:55:31.303Z,0
2017-11-11T05:56:34.057Z,0
2017-11-11T05:57:36.475Z,0
2017-11-11T05:58:38.905Z,0
2017-11-11T05:59:41.682Z,0
2017-11-11T06:00:44.107Z,0
2017-11-11T06:01:47.243Z,4
2017-11-11T06:02:49.664Z,0
2017-11-11T06:03:52.097Z,0
2017-11-11T06:04:54.522Z,0
2017-11-11T06:05:56.938Z,0
2017-11-11T06:06:59.358Z,4
2017-11-11T06:08:01.780Z,4
2017-11-11T06:09:04.197Z,4
2017-11-11T06:10:06.627Z,4
2017-11-11T06:11:09.031Z,12
2017-11-11T06:12:11.452Z,12
2017-11-11T06:13:13.883Z,12
2017-11-11T06:14:16.684Z,8
2017-11-11T06:15:19.110Z,12
2017-11-11T06:16:21.530Z,12
2017-11-11T06:17:23.953Z,16
2017-11-11T06:18:26.387Z,16
2017-11-11T06:19:29.164Z,24
2017-11-11T06:20:31.571Z,36
2017-11-11T06:21:34.419Z,48
2017-11-11T06:22:36.844Z,56
2017-11-11T06:23:39.263Z,64
2017-11-11T06:24:41.690Z,80
2017-11-11T06:25:44.100Z,84
2017-11-11T06:26:46.518Z,108
2017-11-11T06:27:48.934Z,120
2017-11-11T06:28:51.759Z,156
2017-11-11T06:29:54.492Z,192
2017-11-11T06:30:56.920Z,208
2017-11-11T06:31:59.360Z,232
2017-11-11T06:33:01.779Z,220
2017-11-11T06:34:04.195Z,224
2017-11-11T06:35:06.633Z,232
2017-11-11T06:36:09.050Z,268
2017-11-11T06:37:11.489Z,316
2017-11-11T06:38:13.914Z,336
2017-11-11T06:39:16.315Z,380
2017-11-11T06:40:18.734Z,420
2017-11-11T06:41:21.158Z,452
2017-11-11T06:42:23.575Z,528
2017-11-11T06:43:26.006Z,600
2017-11-11T06:44:28.409Z,672
2017-11-11T06:45:30.831Z,712
2017-11-11T06:46:33.253Z,832
2017-11-11T06:47:35.674Z,860
2017-11-11T06:48:38.095Z,884
2017-11-11T06:49:40.513Z,944
2017-11-11T06:50:42.938Z,928
2017-11-11T06:51:45.723Z,992
2017-11-11T06:52:48.144Z,1016
2017-11-11T06:53:50.561Z,1036
2017-11-11T06:54:52.987Z,1236
2017-11-11T06:55:55.768Z,1224
2017-11-11T06:56:58.194Z,1340
2017-11-11T06:58:00.614Z,1280
2017-11-11T06:59:03.057Z,1336
2017-11-11T07:00:05.461Z,1588
2017-11-11T07:01:07.882Z,1612
2017-11-11T07:02:10.308Z,1572
2017-11-11T07:03:13.078Z,1820
2017-11-11T07:04:15.496Z,1916
2017-11-11T07:05:17.923Z,1892
2017-11-11T07:06:20.337Z,2080
2017-11-11T07:07:22.765Z,2104
2017-11-11T07:08:25.182Z,2040
2017-11-11T07:09:27.597Z,2052
2017-11-11T07:10:30.022Z,2272
2017-11-11T07:11:32.446Z,2476
2017-11-11T07:12:34.869Z,2424
2017-11-11T07:13:37.291Z,2804
2017-11-11T07:14:40.067Z,2584
2017-11-11T07:15:42.490Z,2568
2017-11-11T07:16:44.963Z,2440
2017-11-11T07:17:47.407Z,2828
2017-11-11T07:18:50.187Z,3056
2017-11-11T07:19:52.615Z,2592
2017-11-11T07:20:55.035Z,2208
2017-11-11T07:21:57.455Z,2400
2017-11-11T07:22:59.873Z,2488
2017-11-11T07:24:02.295Z,2600
2017-11-11T07:25:04.709Z,2636
2017-11-11T07:26:07.137Z,2864
2017-11-11T07:27:09.568Z,2832
2017-11-11T07:28:11.992Z,2620
2017-11-11T07:29:14.406Z,2644
2017-11-11T07:30:16.821Z,2676
2017-11-11T07:31:19.255Z,2492
2017-11-11T07:32:21.672Z,2268
2017-11-11T07:33:24.096Z,2232
2017-11-11T07:34:26.518Z,2232
2017-11-11T07:35:28.927Z,2108
2017-11-11T07:36:31.365Z,2216
2017-11-11T07:37:33.785Z,2392
2017-11-11T07:38:36.210Z,2584
2017-11-11T07:39:38.625Z,2580
2017-11-11T07:40:41.041Z,2532
2017-11-11T07:41:43.472Z,2508
2017-11-11T07:42:45.897Z,2436
2017-11-11T07:43:48.723Z,2468
2017-11-11T07:44:51.511Z,2444
2017-11-11T07:45:53.937Z,2468
2017-11-11T07:46:56.719Z,2488
2017-11-11T07:47:59.143Z,2568
2017-11-11T07:49:01.560Z,2372
2017-11-11T07:50:03.975Z,2692
2017-11-11T07:51:06.407Z,2724
2017-11-11T07:52:08.825Z,2720
2017-11-11T07:53:11.247Z,2800
2017-11-11T07:54:13.660Z,2928
2017-11-11T07:55:16.100Z,3268
2017-11-11T07:56:18.512Z,3444
2017-11-11T07:57:20.929Z,3512
2017-11-11T07:58:23.353Z,4020
2017-11-11T07:59:25.775Z,3652
2017-11-11T08:00:28.183Z,4248
2017-11-11T08:01:30.619Z,3420
2017-11-11T08:02:33.023Z,3804
2017-11-11T08:03:35.453Z,3872
2017-11-11T08:04:37.877Z,4228
2017-11-11T08:05:40.301Z,4868
2017-11-11T08:06:42.719Z,5496
2017-11-11T08:07:45.150Z,5348
2017-11-11T08:08:47.561Z,4660
2017-11-11T08:09:50.367Z,3760
2017-11-11T08:10:52.783Z,2568
2017-11-11T08:11:55.210Z,2432
2017-11-11T08:12:57.985Z,2328
2017-11-11T08:14:00.414Z,2324
2017-11-11T08:15:02.847Z,2320
2017-11-11T08:16:05.635Z,2372
2017-11-11T08:17:08.073Z,2548
2017-11-11T08:18:10.504Z,2844
2017-11-11T08:19:13.286Z,3084
2017-11-11T08:20:15.712Z,3184
2017-11-11T08:21:18.485Z,2940
2017-11-11T08:22:21.266Z,2724
2017-11-11T08:23:23.687Z,2692
2017-11-11T08:24:26.100Z,2532
2017-11-11T08:25:28.540Z,3360
2017-11-11T08:26:31.329Z,6180
2017-11-11T08:27:33.747Z,7112
2017-11-11T08:28:36.530Z,5384
2017-11-11T08:29:38.951Z,4424
2017-11-11T08:30:41.369Z,3796
2017-11-11T08:31:44.165Z,3904
2017-11-11T08:32:46.591Z,3508
2017-11-11T08:33:48.995Z,3632
2017-11-11T08:34:51.781Z,3776
2017-11-11T08:35:54.199Z,4368
2017-11-11T08:36:56.621Z,4188
2017-11-11T08:37:59.050Z,5312
2017-11-11T08:39:01.498Z,5540
2017-11-11T08:40:03.891Z,6508
2017-11-11T08:41:06.316Z,7640
2017-11-11T08:42:08.745Z,11772
2017-11-11T08:43:11.152Z,8880
2017-11-11T08:44:13.580Z,8728
2017-11-11T08:45:16.372Z,8052
2017-11-11T08:46:18.805Z,9008
2017-11-11T08:47:21.220Z,9424
2017-11-11T08:48:23.631Z,8236
2017-11-11T08:49:26.055Z,7540
2017-11-11T08:50:28.842Z,7828
2017-11-11T08:51:31.257Z,6988
2017-11-11T08:52:33.686Z,6912
2017-11-11T08:53:36.108Z,6800
2017-11-11T08:54:38.892Z,6772
2017-11-11T08:55:41.311Z,8264
2017-11-11T08:56:43.737Z,7132
2017-11-11T08:57:46.153Z,5424
2017-11-11T08:58:48.578Z,5292
2017-11-11T08:59:50.993Z,5556
2017-11-11T09:00:53.415Z,5624
2017-11-11T09:01:55.839Z,5572
2017-11-11T09:02:58.278Z,5024
2017-11-11T09:04:00.710Z,5868
2017-11-11T09:05:03.882Z,5076
2017-11-11T09:06:06.328Z,4676
2017-11-11T09:07:08.808Z,5996
2017-11-11T09:08:11.234Z,6812
2017-11-11T09:09:13.683Z,5000
2017-11-11T09:10:16.099Z,4656
2017-11-11T09:11:18.698Z,4664
2017-11-11T09:12:21.137Z,6180
2017-11-11T09:13:23.572Z,6080
2017-11-11T09:14:26.410Z,6824
2017-11-11T09:15:29.234Z,6640
2017-11-11T09:16:32.168Z,8232
2017-11-11T09:17:41.614Z,8648
2017-11-11T09:18:43.988Z,10536
2017-11-11T09:19:46.364Z,12764
2017-11-11T09:20:49.086Z,10496
2017-11-11T09:21:51.466Z,8296
2017-11-11T09:22:54.206Z,8512
2017-11-11T09:23:56.564Z,8616
2017-11-11T09:24:58.930Z,7976
2017-11-11T09:26:01.301Z,7988
2017-11-11T09:27:03.663Z,8084
2017-11-11T09:28:06.035Z,9164
2017-11-11T09:29:08.406Z,7984
2017-11-11T09:30:10.784Z,6672
2017-11-11T09:31:13.867Z,5492
2017-11-11T09:32:16.242Z,5556
2017-11-11T09:33:18.600Z,4732
2017-11-11T09:34:20.971Z,5024
2017-11-11T09:35:23.343Z,4524
2017-11-11T09:36:26.069Z,4324
2017-11-11T09:37:29.143Z,4644
2017-11-11T09:38:31.513Z,5220
2017-11-11T09:39:33.893Z,5124
2017-11-11T09:40:36.274Z,5328
2017-11-11T09:41:38.639Z,5292
2017-11-11T09:42:41.009Z,4644
2017-11-11T09:43:43.382Z,5192
2017-11-11T09:44:45.748Z,4580
2017-11-11T09:45:48.125Z,4284
2017-11-11T09:46:50.501Z,3852
2017-11-11T09:47:53.210Z,4704
2017-11-11T09:48:55.578Z,5108
2017-11-11T09:49:57.968Z,4060
2017-11-11T09:51:00.340Z,3852
2017-11-11T09:52:02.720Z,3296
2017-11-11T09:53:05.098Z,2656
2017-11-11T09:54:07.823Z,1936
2017-11-11T09:55:10.192Z,1696
2017-11-11T09:56:12.573Z,1388
2017-11-11T09:57:14.942Z,1600
2017-11-11T09:58:17.335Z,1956
2017-11-11T09:59:19.702Z,1952
2017-11-11T10:00:22.081Z,2524
2017-11-11T10:01:24.455Z,2864
2017-11-11T10:02:26.826Z,2280
2017-11-11T10:03:29.197Z,2200
2017-11-11T10:04:31.559Z,2116
2017-11-11T10:05:33.935Z,2272
2017-11-11T10:06:36.314Z,2340
2017-11-11T10:07:38.681Z,2816
2017-11-11T10:08:41.047Z,2732
2017-11-11T10:09:46.531Z,2596
2017-11-11T10:10:49.098Z,2344
2017-11-11T10:11:52.325Z,2440
2017-11-11T10:12:55.481Z,2820
2017-11-11T10:13:57.943Z,2520
2017-11-11T10:15:00.367Z,2680
2017-11-11T10:16:02.791Z,2708
2017-11-11T10:17:05.585Z,2840
2017-11-11T10:18:08.053Z,3128
2017-11-11T10:19:10.869Z,3264
2017-11-11T10:20:13.303Z,2836
2017-11-11T10:21:15.719Z,2796
2017-11-11T10:22:18.177Z,2620
2017-11-11T10:23:20.594Z,2660
2017-11-11T10:24:23.391Z,2644
2017-11-11T10:25:26.197Z,2640
2017-11-11T10:26:28.969Z,2816
2017-11-11T10:27:31.404Z,2512
2017-11-11T10:28:34.174Z,2224
2017-11-11T10:29:36.613Z,2140
2017-11-11T10:30:39.059Z,2344
2017-11-11T10:31:41.560Z,2452
2017-11-11T10:32:43.981Z,2464
2017-11-11T10:33:46.436Z,2636
2017-11-11T10:34:48.858Z,2748
2017-11-11T10:35:51.280Z,2732
2017-11-11T10:36:54.104Z,2848
2017-11-11T10:37:56.522Z,2864
2017-11-11T10:38:59.317Z,2788
2017-11-11T10:40:01.755Z,2864
2017-11-11T10:41:04.547Z,3156
2017-11-11T10:42:06.959Z,3636
2017-11-11T10:43:09.384Z,3832
2017-11-11T10:44:12.184Z,4084
2017-11-11T10:45:14.639Z,4684
2017-11-11T10:46:17.091Z,5888
2017-11-11T10:47:19.503Z,7976
2017-11-11T10:48:21.947Z,10584
2017-11-11T10:49:24.392Z,12828
2017-11-11T10:50:26.815Z,14088
2017-11-11T10:51:29.635Z,15448
2017-11-11T10:52:32.068Z,17520
2017-11-11T10:53:34.497Z,18912
2017-11-11T10:54:37.272Z,19104
2017-11-11T10:55:39.685Z,17128
2017-11-11T10:56:42.118Z,15688
2017-11-11T10:57:44.888Z,14332
2017-11-11T10:58:47.675Z,12332
2017-11-11T10:59:50.094Z,12064
2017-11-11T11:00:52.900Z,10936
2017-11-11T11:01:55.330Z,10028
2017-11-11T11:02:57.756Z,9912
2017-11-11T11:04:00.191Z,9472
2017-11-11T11:05:02.620Z,9496
2017-11-11T11:06:05.036Z,10940
2017-11-11T11:07:07.813Z,9452
2017-11-11T11:08:10.245Z,10120
2017-11-11T11:09:12.673Z,8896
2017-11-11T11:10:15.505Z,7600
2017-11-11T11:11:17.939Z,6544
2017-11-11T11:12:20.360Z,6372
2017-11-11T11:13:22.789Z,6796
2017-11-11T11:14:25.208Z,6104
2017-11-11T11:15:27.636Z,4840
2017-11-11T11:16:30.057Z,4440
2017-11-11T11:17:32.488Z,3704
2017-11-11T11:18:34.908Z,3880
2017-11-11T11:19:37.689Z,3304
2017-11-11T11:20:40.830Z,3628
2017-11-11T11:21:43.623Z,3904
2017-11-11T11:22:46.397Z,5100
2017-11-11T11:23:48.818Z,4560
2017-11-11T11:24:51.241Z,5224
2017-11-11T11:25:53.802Z,4828
2017-11-11T11:26:56.223Z,4712
2017-11-11T11:27:58.656Z,5276
2017-11-11T11:29:01.075Z,4824
2017-11-11T11:30:03.498Z,4536
2017-11-11T11:31:05.927Z,5396
2017-11-11T11:32:08.711Z,4896
2017-11-11T11:33:11.140Z,4328
2017-11-11T11:34:13.561Z,3980
2017-11-11T11:35:15.981Z,3892
2017-11-11T11:36:18.402Z,4420
2017-11-11T11:37:20.835Z,4580
2017-11-11T11:38:23.258Z,4856
2017-11-11T11:39:25.684Z,4956
2017-11-11T11:40:28.106Z,4916
2017-11-11T11:41:30.527Z,6308
2017-11-11T11:42:32.969Z,7044
2017-11-11T11:43:35.409Z,6408
2017-11-11T11:44:37.837Z,6400
2017-11-11T11:45:40.261Z,6244
2017-11-11T11:46:42.680Z,6588
2017-11-11T11:47:45.117Z,7240
2017-11-11T11:48:47.539Z,7504
2017-11-11T11:49:49.959Z,7312
2017-11-11T11:50:52.380Z,8136
2017-11-11T11:51:54.793Z,7732
2017-11-11T11:52:57.220Z,7540
2017-11-11T11:53:59.642Z,9072
2017-11-11T11:55:02.056Z,10876
2017-11-11T11:56:05.251Z,14500
2017-11-11T11:57:07.672Z,14024
2017-11-11T11:58:10.099Z,12920
2017-11-11T11:59:12.529Z,11684
2017-11-11T12:00:14.950Z,11992
2017-11-11T12:01:17.370Z,12336
2017-11-11T12:02:19.803Z,10676
2017-11-11T12:03:22.586Z,9612
2017-11-11T12:04:25.733Z,8532
2017-11-11T12:05:28.532Z,8424
2017-11-11T12:06:31.306Z,7272
2017-11-11T12:07:34.104Z,9780
2017-11-11T12:08:36.533Z,11856
2017-11-11T12:09:38.953Z,11204
2017-11-11T12:10:41.380Z,15596
2017-11-11T12:11:43.804Z,11448
2017-11-11T12:12:46.234Z,10920
2017-11-11T12:13:48.653Z,13576
2017-11-11T12:14:51.083Z,10808
2017-11-11T12:15:53.505Z,15008
2017-11-11T12:16:56.300Z,17180
2017-11-11T12:17:58.713Z,17408
2017-11-11T12:19:01.135Z,13284
2017-11-11T12:20:03.567Z,13412
2017-11-11T12:21:05.993Z,14472
2017-11-11T12:22:08.415Z,18304
2017-11-11T12:23:10.844Z,16160
2017-11-11T12:24:13.305Z,12692
2017-11-11T12:25:15.755Z,13176
2017-11-11T12:26:18.570Z,13384
2017-11-11T12:27:21.021Z,63264
2017-11-11T12:28:23.483Z,20416
2017-11-11T12:29:25.947Z,11968
2017-11-11T12:30:28.406Z,10000
2017-11-11T12:31:31.201Z,9796
2017-11-11T12:32:33.665Z,8084
2017-11-11T12:33:36.410Z,6532
2017-11-11T12:34:38.873Z,8028
2017-11-11T12:35:41.315Z,8120
2017-11-11T12:36:43.764Z,8216
2017-11-11T12:37:46.217Z,6328
2017-11-11T12:38:48.656Z,6044
2017-11-11T12:39:51.110Z,6348
2017-11-11T12:40:53.571Z,5608
2017-11-11T12:41:56.002Z,6620
2017-11-11T12:42:58.437Z,5644
2017-11-11T12:44:00.918Z,4316
2017-11-11T12:45:03.360Z,4348
2017-11-11T12:46:05.830Z,4572
2017-11-11T12:47:08.360Z,4756
2017-11-11T12:48:10.840Z,5092
2017-11-11T12:49:13.686Z,5720
2017-11-11T12:50:16.155Z,4952
2017-11-11T12:51:18.998Z,3264
2017-11-11T12:53:53.887Z,3760
2017-11-11T12:54:56.256Z,3104
2017-11-11T12:55:58.638Z,2512
2017-11-11T12:57:00.999Z,2736
2017-11-11T12:58:03.383Z,2036
2017-11-11T12:59:05.880Z,1756
2017-11-11T13:00:08.248Z,1832
2017-11-11T13:01:10.999Z,1660
2017-11-11T13:02:13.349Z,1384
2017-11-11T13:03:16.077Z,1224
2017-11-11T13:04:18.458Z,1268
2017-11-11T13:05:20.852Z,1816
2017-11-11T13:06:23.188Z,2176
2017-11-11T13:07:25.564Z,2152
2017-11-11T13:08:27.932Z,1596
2017-11-11T13:09:30.304Z,1232
2017-11-11T13:10:32.691Z,1320
2017-11-11T13:11:35.104Z,1580
2017-11-11T13:12:38.426Z,1476
2017-11-11T13:13:40.809Z,1472
2017-11-11T13:14:43.179Z,1168
2017-11-11T13:15:48.901Z,1120
2017-11-11T13:16:57.796Z,1084
2017-11-11T13:18:01.867Z,928
2017-11-11T13:19:08.893Z,1068
2017-11-11T13:20:17.651Z,1324
2017-11-11T13:21:20.024Z,1200
2017-11-11T13:22:22.758Z,1116
2017-11-11T13:23:25.130Z,904
2017-11-11T13:24:27.499Z,784
2017-11-11T13:25:29.879Z,972
2017-11-11T13:26:32.249Z,1068
2017-11-11T13:27:34.626Z,880
2017-11-11T13:28:37.009Z,664
2017-11-11T13:29:39.368Z,636
2017-11-11T13:30:42.447Z,552
2017-11-11T13:31:44.918Z,472
2017-11-11T13:32:47.289Z,456
2017-11-11T13:33:50.016Z,480
2017-11-11T13:34:52.404Z,424
2017-11-11T13:35:54.765Z,444
2017-11-11T13:36:57.170Z,476
2017-11-11T13:37:59.536Z,424
2017-11-11T13:39:01.904Z,396
2017-11-11T13:40:04.288Z,432
2017-11-11T13:41:06.650Z,448
2017-11-11T13:42:09.036Z,516
2017-11-11T13:43:11.417Z,572
2017-11-11T13:44:13.781Z,588
2017-11-11T13:45:16.155Z,720
2017-11-11T13:46:18.876Z,1020
2017-11-11T13:47:21.246Z,1640
2017-11-11T13:48:23.668Z,2548
2017-11-11T13:49:26.038Z,3660
2017-11-11T13:50:28.415Z,4280
2017-11-11T13:51:30.849Z,4284
2017-11-11T13:52:33.271Z,4076
2017-11-11T13:53:36.070Z,3788
2017-11-11T13:54:38.513Z,3564
2017-11-11T13:55:40.934Z,3400
2017-11-11T13:56:43.373Z,3388
2017-11-11T13:57:45.811Z,3636
2017-11-11T13:58:48.254Z,4008
2017-11-11T13:59:50.681Z,4308
2017-11-11T14:00:53.542Z,4520
2017-11-11T14:01:56.149Z,4660
2017-11-11T14:02:58.664Z,4740
2017-11-11T14:04:01.087Z,4768
2017-11-11T14:05:03.858Z,4764
2017-11-11T14:06:06.709Z,4852
2017-11-11T14:07:09.182Z,4996
2017-11-11T14:08:11.981Z,5108
2017-11-11T14:09:14.498Z,5108
2017-11-11T14:10:16.936Z,4968
2017-11-11T14:11:19.497Z,4716
2017-11-11T14:12:21.934Z,4416
2017-11-11T14:13:24.456Z,4064
2017-11-11T14:14:26.884Z,3772
2017-11-11T14:15:29.310Z,3568
2017-11-11T14:16:31.753Z,3420
2017-11-11T14:17:34.192Z,3316
2017-11-11T14:18:36.629Z,3268
2017-11-11T14:19:39.094Z,3312
2017-11-11T14:20:42.036Z,3392
2017-11-11T14:21:44.504Z,3460
2017-11-11T14:22:47.062Z,3460
2017-11-11T14:23:49.488Z,3388
2017-11-11T14:24:51.919Z,3260
2017-11-11T14:25:54.364Z,3092
2017-11-11T14:26:57.165Z,2940
2017-11-11T14:28:00.398Z,2816
2017-11-11T14:29:02.836Z,2700
2017-11-11T14:30:05.263Z,2576
2017-11-11T14:31:07.695Z,2496
2017-11-11T14:32:10.147Z,2436